Time;durP1;ratioP1;P1;durP2;ratioP2;P2;SDS_P1;SDS_P2;PMS_P1;PMS_P2;Temp;Humidity;BMP_temperature;BMP_pressure;BME280_temperature;BME280_humidity;BME280_pressure;Samples;Min_cycle;Max_cycle;Signal;HPM_P1;HPM_P2
2023/01/10 00:01:38;;;;;;;2.65;1.27;;;6.90;1.00;;;;;;5066923;28;20041;-77
2023/01/10 00:04:04;;;;;;;3.53;0.93;;;6.90;1.00;;;;;;5020924;28;20041;-76
2023/01/10 00:06:30;;;;;;;3.47;1.20;;;6.90;1.00;;;;;;5039442;28;20028;-78
2023/01/10 00:08:56;;;;;;;4.25;1.77;;;6.90;1.00;;;;;;5059402;28;20043;-78
2023/01/10 00:14:07;;;;;;;2.75;1.20;;;6.80;1.00;;;;;;5055249;28;20037;-77
2023/01/10 00:16:36;;;;;;;4.00;1.70;;;6.90;1.00;;;;;;5046200;28;20045;-78
2023/01/10 00:19:02;;;;;;;3.85;1.23;;;6.90;1.00;;;;;;5050324;28;20029;-77
2023/01/10 00:21:29;;;;;;;3.00;1.38;;;6.90;1.00;;;;;;5055307;28;20036;-77
2023/01/10 00:26:40;;;;;;;2.45;0.88;;;6.80;1.00;;;;;;5053909;28;20417;-78
2023/01/10 00:29:07;;;;;;;3.72;0.68;;;6.80;1.00;;;;;;5048702;28;20051;-76
2023/01/10 00:31:33;;;;;;;2.75;0.70;;;6.70;1.00;;;;;;5055750;28;20043;-76
2023/01/10 00:33:59;;;;;;;1.58;0.75;;;6.70;1.00;;;;;;5054446;28;20036;-76
2023/01/10 00:36:25;;;;;;;1.50;0.85;;;6.70;1.00;;;;;;5073527;28;20036;-75
2023/01/10 00:38:51;;;;;;;1.95;1.05;;;6.70;1.00;;;;;;5071786;28;20037;-76
2023/01/10 00:44:02;;;;;;;3.05;1.30;;;6.70;1.00;;;;;;5053853;28;20382;-77
2023/01/10 00:46:29;;;;;;;2.85;0.98;;;6.70;1.00;;;;;;5067112;28;20028;-77
2023/01/10 00:48:56;;;;;;;4.15;0.75;;;6.60;1.00;;;;;;5072035;28;20047;-77
2023/01/10 00:51:22;;;;;;;1.58;0.60;;;6.60;1.00;;;;;;5073332;28;20032;-79
2023/01/10 00:53:48;;;;;;;3.50;0.57;;;6.60;1.00;;;;;;5055217;28;20043;-78
2023/01/10 00:56:14;;;;;;;0.77;0.30;;;6.50;1.00;;;;;;5073550;28;20472;-78
2023/01/10 00:58:41;;;;;;;3.80;1.25;;;6.40;1.00;;;;;;5072011;28;20036;-79
2023/01/10 01:01:07;;;;;;;1.23;0.60;;;6.40;1.00;;;;;;5054835;28;20043;-79
2023/01/10 01:03:33;;;;;;;0.73;0.30;;;6.40;1.00;;;;;;5055405;28;20051;-80
2023/01/10 01:06:04;;;;;;;0.65;0.30;;;6.40;1.00;;;;;;5055844;28;20036;-79
2023/01/10 01:08:31;;;;;;;0.50;0.30;;;6.30;1.00;;;;;;5056854;28;20040;-79
2023/01/10 01:10:57;;;;;;;0.95;0.30;;;6.30;1.00;;;;;;5054338;28;20033;-79
2023/01/10 01:13:24;;;;;;;0.40;0.20;;;6.20;1.00;;;;;;5038524;28;20052;-78
2023/01/10 01:15:50;;;;;;;1.05;0.32;;;6.20;1.00;;;;;;5069281;28;20033;-78
2023/01/10 01:18:22;;;;;;;1.55;0.20;;;6.20;1.00;;;;;;5061839;28;20045;-78
2023/01/10 01:20:52;;;;;;;0.70;0.30;;;6.20;1.00;;;;;;5056479;28;20037;-78
2023/01/10 01:23:18;;;;;;;0.57;0.13;;;6.10;1.00;;;;;;5053751;28;20041;-78
2023/01/10 01:25:45;;;;;;;0.30;0.10;;;6.10;1.00;;;;;;5053297;28;20462;-79
2023/01/10 01:28:11;;;;;;;1.63;0.22;;;6.10;1.00;;;;;;5052594;28;20033;-79
2023/01/10 01:30:38;;;;;;;0.85;0.30;;;6.00;1.00;;;;;;5053867;28;20032;-79
2023/01/10 01:33:04;;;;;;;0.70;0.43;;;6.00;1.00;;;;;;5053197;28;20402;-79
2023/01/10 01:35:32;;;;;;;1.35;0.50;;;6.00;1.00;;;;;;5053250;28;20466;-79
2023/01/10 01:37:58;;;;;;;0.93;0.30;;;6.00;1.00;;;;;;5066691;28;20389;-79
2023/01/10 01:40:24;;;;;;;1.80;0.35;;;5.90;1.00;;;;;;5054795;28;20044;-79
2023/01/10 01:42:54;;;;;;;0.95;0.28;;;5.90;1.00;;;;;;5071796;28;20028;-79
2023/01/10 01:45:23;;;;;;;0.68;0.30;;;5.90;1.00;;;;;;5054250;28;20055;-79
2023/01/10 01:48:13;;;;;;;0.93;0.30;;;5.80;1.00;;;;;;5051650;28;20351;-79
2023/01/10 01:50:54;;;;;;;1.20;0.40;;;5.80;1.00;;;;;;5053317;28;20390;-79
2023/01/10 01:53:45;;;;;;;2.35;1.30;;;5.80;1.00;;;;;;5035579;28;20048;-79
2023/01/10 01:56:38;;;;;;;1.25;0.40;;;5.80;1.00;;;;;;5054077;28;20032;-79
2023/01/10 01:59:19;;;;;;;1.08;0.40;;;5.70;1.00;;;;;;5071990;28;20369;-79
2023/01/10 02:01:50;;;;;;;;;;;5.80;1.00;;;;;;5085157;28;20036;-79
2023/01/10 02:04:22;;;;;;;1.15;0.40;;;5.70;1.00;;;;;;5056417;28;20304;-78
2023/01/10 02:06:51;;;;;;;1.98;0.30;;;5.90;1.00;;;;;;5046782;28;20048;-78
2023/01/10 02:09:22;;;;;;;1.08;0.52;;;5.90;1.00;;;;;;5053747;28;20037;-78
2023/01/10 02:11:48;;;;;;;1.77;0.43;;;5.90;1.00;;;;;;5045716;28;20044;-79
2023/01/10 02:14:15;;;;;;;0.80;0.40;;;5.90;1.00;;;;;;5048622;28;20032;-78
2023/01/10 02:16:41;;;;;;;4.22;0.50;;;5.80;1.00;;;;;;5056717;28;20409;-79
2023/01/10 02:19:18;;;;;;;1.25;0.40;;;5.90;1.00;;;;;;5052056;28;20025;-79
2023/01/10 02:22:40;;;;;;;2.35;0.40;;;5.80;1.00;;;;;;5067153;28;20052;-79
2023/01/10 02:25:15;;;;;;;5.70;0.85;;;5.80;1.00;;;;;;4989801;28;20499;-77
2023/01/10 02:28:07;;;;;;;1.27;0.50;;;5.80;1.00;;;;;;5060788;28;20390;-78
2023/01/10 02:30:59;;;;;;;1.92;0.52;;;5.90;1.00;;;;;;5014759;28;20041;-76
2023/01/10 02:33:35;;;;;;;3.92;0.75;;;5.90;1.00;;;;;;5049981;28;20497;-77
2023/01/10 02:36:22;;;;;;;3.42;1.63;;;5.90;1.00;;;;;;5073874;28;20047;-77
2023/01/10 02:39:03;;;;;;;3.97;0.93;;;5.90;1.00;;;;;;5064461;28;20047;-76
2023/01/10 02:41:35;;;;;;;3.95;1.85;;;6.00;1.00;;;;;;5075975;28;20032;-77
2023/01/10 02:44:31;;;;;;;3.67;0.50;;;6.00;1.00;;;;;;5075893;28;20039;-76
2023/01/10 02:46:57;;;;;;;1.23;0.65;;;6.00;1.00;;;;;;5030361;28;20049;-77
2023/01/10 02:49:23;;;;;;;2.45;0.95;;;6.00;1.00;;;;;;5046394;28;20160;-77
2023/01/10 02:51:49;;;;;;;2.33;0.88;;;6.00;1.00;;;;;;5056311;28;20397;-77
2023/01/10 02:54:24;;;;;;;1.48;0.68;;;6.00;1.00;;;;;;5069642;28;20036;-77
2023/01/10 02:57:05;;;;;;;2.05;0.88;;;6.00;1.00;;;;;;5073972;28;20029;-77
2023/01/10 02:59:31;;;;;;;;;;;6.00;1.00;;;;;;5038107;28;20044;-77
2023/01/10 03:02:20;;;;;;;3.40;1.10;;;6.10;1.00;;;;;;5056080;28;20348;-75
2023/01/10 03:04:53;;;;;;;3.58;0.80;;;6.10;1.00;;;;;;5067507;28;20490;-75
2023/01/10 03:07:27;;;;;;;5.18;0.90;;;6.10;1.00;;;;;;5044257;28;20045;-75
2023/01/10 03:10:18;;;;;;;3.58;1.25;;;6.10;1.00;;;;;;5073269;28;20024;-77
2023/01/10 03:12:59;;;;;;;8.80;1.63;;;6.10;1.00;;;;;;5075462;28;20040;-77
2023/01/10 03:15:30;;;;;;;4.90;1.15;;;6.10;1.00;;;;;;5075493;28;20028;-76
2023/01/10 03:18:00;;;;;;;4.68;1.23;;;6.10;1.00;;;;;;5074931;28;20050;-77
2023/01/10 03:20:30;;;;;;;2.47;1.25;;;6.10;1.00;;;;;;5068097;28;20389;-79
2023/01/10 03:22:59;;;;;;;3.03;1.10;;;6.10;1.00;;;;;;5057130;28;20048;-76
2023/01/10 03:25:32;;;;;;;1.92;0.93;;;6.00;1.00;;;;;;5075452;28;20028;-77
2023/01/10 03:28:16;;;;;;;13.15;1.95;;;6.00;1.00;;;;;;5074452;28;20032;-76
2023/01/10 03:30:51;;;;;;;6.00;1.48;;;6.00;1.00;;;;;;5073243;28;20032;-77
2023/01/10 03:33:22;;;;;;;8.32;1.52;;;6.00;1.00;;;;;;5074635;28;20425;-77
2023/01/10 03:36:08;;;;;;;10.02;3.67;;;5.90;1.00;;;;;;5043706;28;20040;-78
2023/01/10 03:38:51;;;;;;;4.63;1.13;;;6.00;1.00;;;;;;5070670;28;20396;-75
2023/01/10 03:41:38;;;;;;;3.92;1.45;;;6.00;1.00;;;;;;5067106;28;20500;-77
2023/01/10 03:44:43;;;;;;;4.85;1.65;;;6.00;1.00;;;;;;5065663;28;20037;-75
2023/01/10 03:47:26;;;;;;;8.68;1.27;;;6.00;1.00;;;;;;5074267;28;20032;-77
2023/01/10 03:50:11;;;;;;;2.53;1.15;;;6.10;1.00;;;;;;5056036;28;20044;-77
2023/01/10 03:52:40;;;;;;;4.47;1.25;;;6.10;1.00;;;;;;5074210;28;20053;-78
2023/01/10 03:55:10;;;;;;;6.25;1.48;;;6.10;1.00;;;;;;5072173;28;20037;-78
2023/01/10 03:57:36;;;;;;;4.38;1.30;;;6.10;1.00;;;;;;5056426;28;20036;-78
2023/01/10 04:00:05;;;;;;;2.05;0.95;;;6.10;1.00;;;;;;5073757;28;20032;-77
2023/01/10 04:02:32;;;;;;;4.55;1.08;;;6.10;1.00;;;;;;5074165;28;20386;-77
2023/01/10 04:04:58;;;;;;;3.47;1.50;;;6.10;1.00;;;;;;5072402;28;20040;-77
2023/01/10 04:07:25;;;;;;;6.72;1.88;;;6.10;1.00;;;;;;5072531;28;20434;-77
2023/01/10 04:09:51;;;;;;;6.28;1.45;;;6.10;1.00;;;;;;5055448;28;20029;-78
2023/01/10 04:12:17;;;;;;;3.17;1.45;;;6.10;1.00;;;;;;5073794;28;20040;-79
2023/01/10 04:14:46;;;;;;;7.05;2.20;;;6.10;1.00;;;;;;5067834;28;20405;-78
2023/01/10 04:17:14;;;;;;;5.85;2.00;;;6.10;1.00;;;;;;5057171;28;20049;-78
2023/01/10 04:19:40;;;;;;;4.35;1.80;;;6.10;1.00;;;;;;5074791;28;20033;-78
2023/01/10 04:22:07;;;;;;;4.20;1.83;;;6.10;1.00;;;;;;5077905;28;20039;-78
2023/01/10 04:24:34;;;;;;;7.10;1.60;;;6.10;1.00;;;;;;5091805;28;20036;-79
2023/01/10 04:27:00;;;;;;;3.47;1.40;;;6.10;1.00;;;;;;5093931;28;20032;-77
2023/01/10 04:29:26;;;;;;;4.35;1.60;;;6.10;1.00;;;;;;5093008;28;20036;-77
2023/01/10 04:31:53;;;;;;;4.93;1.95;;;6.10;1.00;;;;;;5092466;28;20040;-77
2023/01/10 04:34:20;;;;;;;10.68;1.63;;;6.00;1.00;;;;;;5092950;28;20043;-77
2023/01/10 04:36:47;;;;;;;7.47;1.98;;;6.00;1.00;;;;;;5083197;28;20032;-78
2023/01/10 04:39:14;;;;;;;6.75;1.70;;;6.00;1.00;;;;;;5072656;28;20041;-77
2023/01/10 04:41:40;;;;;;;5.93;1.67;;;6.00;1.00;;;;;;5074756;28;20469;-79
2023/01/10 04:44:06;;;;;;;6.00;2.42;;;6.10;1.00;;;;;;5092109;28;20043;-78
2023/01/10 04:46:32;;;;;;;4.57;1.95;;;6.10;1.00;;;;;;5073648;28;20040;-79
2023/01/10 04:48:59;;;;;;;9.48;2.70;;;6.10;1.00;;;;;;5073929;28;20032;-79
2023/01/10 04:51:26;;;;;;;3.60;1.48;;;6.00;1.00;;;;;;5074389;28;20032;-79
2023/01/10 04:53:53;;;;;;;6.13;1.83;;;6.00;1.00;;;;;;5073334;28;20036;-77
2023/01/10 04:56:21;;;;;;;5.03;2.08;;;6.00;1.00;;;;;;5078081;28;20037;-79
2023/01/10 04:58:48;;;;;;;4.60;1.63;;;6.00;1.00;;;;;;5073872;28;20037;-79
2023/01/10 05:01:17;;;;;;;6.22;2.30;;;6.00;1.00;;;;;;5092708;28;20408;-77
2023/01/10 05:03:45;;;;;;;6.30;2.20;;;6.00;1.00;;;;;;5093613;28;20040;-78
2023/01/10 05:06:11;;;;;;;4.57;1.75;;;6.00;1.00;;;;;;5070154;28;20044;-77
2023/01/10 05:08:38;;;;;;;4.07;1.80;;;6.00;1.00;;;;;;5084918;28;20056;-77
2023/01/10 05:11:04;;;;;;;6.90;1.90;;;5.90;1.00;;;;;;5092266;28;20484;-80
2023/01/10 05:13:30;;;;;;;10.13;2.10;;;5.90;1.00;;;;;;5091856;28;20485;-78
2023/01/10 05:15:57;;;;;;;8.20;1.90;;;5.90;1.00;;;;;;5087901;28;20032;-78
2023/01/10 05:18:24;;;;;;;10.98;2.75;;;5.80;1.00;;;;;;5072793;28;20033;-78
2023/01/10 05:20:50;;;;;;;6.25;1.88;;;5.80;1.00;;;;;;5072916;28;20485;-79
2023/01/10 05:23:17;;;;;;;9.07;3.55;;;5.80;1.00;;;;;;5072178;28;20106;-77
2023/01/10 05:25:43;;;;;;;9.65;2.67;;;5.70;1.00;;;;;;5054340;28;20044;-78
2023/01/10 05:28:10;;;;;;;8.75;2.80;;;5.70;1.00;;;;;;5034815;28;20045;-81
2023/01/10 05:30:36;;;;;;;12.38;2.55;;;5.80;1.00;;;;;;5053629;28;20375;-82
2023/01/10 05:33:05;;;;;;;13.73;2.90;;;5.80;1.00;;;;;;5067986;28;20047;-75
2023/01/10 05:35:31;;;;;;;7.75;2.65;;;5.70;1.00;;;;;;5050287;28;20042;-74
2023/01/10 05:37:57;;;;;;;15.18;3.03;;;5.70;1.00;;;;;;5034514;28;20041;-74
2023/01/10 05:40:23;;;;;;;12.43;3.15;;;5.70;1.00;;;;;;5053002;28;20378;-75
2023/01/10 05:42:49;;;;;;;18.63;3.05;;;5.70;1.00;;;;;;5060837;28;20036;-75
2023/01/10 05:45:16;;;;;;;7.45;2.60;;;5.70;1.00;;;;;;5069967;28;20033;-74
2023/01/10 05:47:42;;;;;;;9.63;2.70;;;5.80;1.00;;;;;;5054011;28;20036;-74
2023/01/10 05:50:09;;;;;;;10.05;2.00;;;5.90;1.00;;;;;;5071622;28;20036;-76
2023/01/10 05:52:35;;;;;;;9.25;2.22;;;6.00;1.00;;;;;;5072076;28;20041;-75
2023/01/10 05:55:01;;;;;;;7.85;3.10;;;6.00;1.00;;;;;;5051995;28;20466;-75
2023/01/10 05:57:27;;;;;;;12.13;2.42;;;6.00;1.00;;;;;;5071596;28;20458;-75
2023/01/10 05:59:54;;;;;;;11.48;1.85;;;6.20;1.00;;;;;;5071349;28;20334;-76
2023/01/10 06:02:20;;;;;;;11.73;2.17;;;6.10;1.00;;;;;;5053378;28;20037;-75
2023/01/10 06:04:46;;;;;;;11.50;2.33;;;6.10;1.00;;;;;;5057871;28;20033;-75
2023/01/10 06:07:12;;;;;;;8.70;3.05;;;6.10;1.00;;;;;;5051741;28;20052;-74
2023/01/10 06:09:38;;;;;;;10.00;1.45;;;6.10;1.00;;;;;;5052171;28;20029;-75
2023/01/10 06:12:04;;;;;;;7.68;2.28;;;6.10;1.00;;;;;;5040916;28;20032;-75
2023/01/10 06:14:30;;;;;;;7.28;2.13;;;6.20;1.00;;;;;;5032527;28;20048;-75
2023/01/10 06:16:57;;;;;;;10.88;1.85;;;6.20;1.00;;;;;;5056003;28;20044;-75
2023/01/10 06:19:23;;;;;;;7.68;2.53;;;6.20;1.00;;;;;;5041318;28;20047;-75
2023/01/10 06:21:49;;;;;;;10.93;2.10;;;6.20;1.00;;;;;;5060886;28;20035;-75
2023/01/10 06:24:15;;;;;;;8.45;4.45;;;6.20;1.00;;;;;;5057131;28;20473;-75
2023/01/10 06:26:41;;;;;;;7.70;1.60;;;6.20;1.00;;;;;;5060546;28;20036;-75
2023/01/10 06:29:08;;;;;;;8.02;2.00;;;6.20;1.00;;;;;;5060308;28;20048;-75
2023/01/10 06:31:35;;;;;;;11.57;1.95;;;6.20;1.00;;;;;;5073487;28;20028;-75
2023/01/10 06:34:01;;;;;;;10.00;2.70;;;6.30;1.00;;;;;;5069867;28;20028;-75
2023/01/10 06:36:27;;;;;;;12.55;2.90;;;6.30;1.00;;;;;;5070568;28;20047;-75
2023/01/10 06:38:53;;;;;;;11.95;2.30;;;6.30;1.00;;;;;;5053214;28;20036;-76
2023/01/10 06:41:19;;;;;;;7.75;2.08;;;6.20;1.00;;;;;;5033950;28;20033;-76
2023/01/10 06:43:46;;;;;;;8.45;2.45;;;6.20;1.00;;;;;;5052357;28;20037;-77
2023/01/10 06:46:15;;;;;;;7.85;2.10;;;6.10;1.00;;;;;;5069899;28;20033;-75
2023/01/10 06:48:44;;;;;;;9.82;2.65;;;6.10;1.00;;;;;;5051846;28;20033;-76
2023/01/10 06:51:12;;;;;;;14.43;2.55;;;6.10;1.00;;;;;;5051667;28;20590;-75
2023/01/10 06:53:38;;;;;;;6.13;1.83;;;6.10;1.00;;;;;;5034333;28;20041;-75
2023/01/10 06:56:05;;;;;;;11.52;2.25;;;6.20;1.00;;;;;;5067858;28;20036;-76
2023/01/10 06:58:31;;;;;;;13.82;2.97;;;6.10;1.00;;;;;;5059008;28;20033;-75
2023/01/10 07:00:57;;;;;;;9.80;3.03;;;6.20;1.00;;;;;;5063457;28;20075;-76
2023/01/10 07:03:24;;;;;;;5.63;2.15;;;6.20;1.00;;;;;;5048437;28;20383;-75
2023/01/10 07:05:50;;;;;;;13.25;2.20;;;6.20;1.00;;;;;;5050982;28;20381;-75
2023/01/10 07:08:16;;;;;;;12.85;2.20;;;6.10;1.00;;;;;;5052355;28;20025;-74
2023/01/10 07:10:42;;;;;;;8.70;1.98;;;6.10;1.00;;;;;;5034070;28;20048;-74
2023/01/10 07:13:09;;;;;;;9.77;2.97;;;6.10;1.00;;;;;;5054856;28;20040;-74
2023/01/10 07:15:35;;;;;;;9.05;2.33;;;6.10;1.00;;;;;;5055169;28;20033;-74
2023/01/10 07:18:01;;;;;;;9.90;2.45;;;6.10;1.00;;;;;;5069005;28;20063;-75
2023/01/10 07:20:28;;;;;;;12.20;2.38;;;6.00;1.00;;;;;;5061586;28;20048;-75
2023/01/10 07:22:56;;;;;;;6.18;2.33;;;6.00;1.00;;;;;;5051708;28;20036;-75
2023/01/10 07:25:23;;;;;;;14.35;2.40;;;6.00;1.00;;;;;;5049752;28;20029;-75
2023/01/10 07:27:49;;;;;;;10.40;2.60;;;5.90;1.00;;;;;;5039808;28;20052;-75
2023/01/10 07:30:16;;;;;;;7.25;2.97;;;5.90;1.00;;;;;;5051441;28;20033;-75
2023/01/10 07:32:42;;;;;;;8.10;2.55;;;5.90;1.00;;;;;;5038629;28;20383;-75
2023/01/10 07:35:08;;;;;;;10.90;3.10;;;6.00;1.00;;;;;;5056116;28;20462;-75
2023/01/10 07:37:34;;;;;;;8.80;2.63;;;6.00;1.00;;;;;;5071276;28;20457;-75
2023/01/10 07:40:00;;;;;;;8.80;2.38;;;6.00;1.00;;;;;;5070137;28;20045;-75
2023/01/10 07:42:26;;;;;;;11.05;4.80;;;6.10;1.00;;;;;;5072854;28;20040;-74
2023/01/10 07:44:52;;;;;;;11.23;2.38;;;6.10;1.00;;;;;;5038522;28;20048;-75
2023/01/10 07:47:19;;;;;;;12.82;2.50;;;6.20;1.00;;;;;;5060972;28;20029;-74
2023/01/10 07:49:45;;;;;;;10.27;2.55;;;6.20;1.00;;;;;;5039894;28;20037;-75
2023/01/10 07:52:11;;;;;;;11.63;3.60;;;6.10;1.00;;;;;;5074067;28;20377;-75
2023/01/10 07:54:37;;;;;;;8.70;2.97;;;6.20;1.00;;;;;;5060877;28;20037;-75
2023/01/10 07:57:03;;;;;;;5.00;1.75;;;6.10;1.00;;;;;;5041301;28;20405;-75
2023/01/10 07:59:29;;;;;;;9.00;2.25;;;6.10;1.00;;;;;;5056591;28;20378;-74
2023/01/10 08:01:55;;;;;;;8.02;1.75;;;6.10;1.00;;;;;;5054661;28;20040;-74
2023/01/10 08:04:22;;;;;;;10.77;2.00;;;6.20;1.00;;;;;;5052867;28;20029;-74
2023/01/10 08:06:48;;;;;;;9.45;3.00;;;6.20;1.00;;;;;;5020335;28;20056;-74
2023/01/10 08:09:14;;;;;;;10.57;2.30;;;6.20;1.00;;;;;;5053996;28;20033;-74
2023/01/10 08:11:42;;;;;;;5.70;1.95;;;6.20;1.00;;;;;;5036576;28;20473;-74
2023/01/10 08:14:08;;;;;;;10.50;2.78;;;6.20;1.00;;;;;;5062331;28;20590;-75
2023/01/10 08:16:34;;;;;;;5.57;2.13;;;6.30;1.00;;;;;;5073777;28;20056;-74
2023/01/10 08:19:00;;;;;;;16.75;3.28;;;6.30;1.00;;;;;;5064680;28;20358;-76
2023/01/10 08:21:26;;;;;;;8.93;2.30;;;6.30;1.00;;;;;;5036734;28;20048;-74
2023/01/10 08:23:53;;;;;;;11.65;3.03;;;6.30;1.00;;;;;;5019402;28;20048;-74
2023/01/10 08:26:19;;;;;;;11.73;3.45;;;6.30;1.00;;;;;;5056476;28;20375;-75
2023/01/10 08:28:46;;;;;;;8.63;2.15;;;6.40;1.00;;;;;;5041508;28;20041;-75
2023/01/10 08:31:12;;;;;;;6.18;1.92;;;6.40;99.90;;;;;;5054204;28;20033;-74
2023/01/10 08:33:41;;;;;;;9.20;2.90;;;6.50;99.90;;;;;;5073512;28;20040;-75
2023/01/10 08:36:17;;;;;;;7.72;2.50;;;6.50;99.90;;;;;;5071859;28;20099;-75
2023/01/10 08:38:44;;;;;;;9.52;2.55;;;6.50;99.90;;;;;;5073467;28;20489;-75
2023/01/10 08:41:11;;;;;;;8.82;2.25;;;6.50;99.90;;;;;;5034190;28;20029;-75
2023/01/10 08:43:39;;;;;;;9.90;2.78;;;6.50;1.00;;;;;;5054144;28;20350;-74
2023/01/10 08:46:05;;;;;;;16.33;2.97;;;6.40;1.00;;;;;;5052069;28;20374;-75
2023/01/10 08:48:32;;;;;;;8.90;4.20;;;6.40;1.00;;;;;;5067048;28;20040;-75
2023/01/10 08:51:03;;;;;;;12.45;3.63;;;6.50;1.00;;;;;;5066626;28;20053;-74
2023/01/10 08:53:30;;;;;;;9.88;3.85;;;6.50;1.00;;;;;;5047685;28;20051;-75
2023/01/10 08:55:56;;;;;;;10.40;2.88;;;6.50;1.00;;;;;;5052528;28;20029;-74
2023/01/10 08:58:23;;;;;;;6.32;2.65;;;6.50;1.00;;;;;;5059893;28;20036;-74
2023/01/10 09:00:50;;;;;;;13.52;3.83;;;6.60;1.00;;;;;;5053479;28;20028;-74
2023/01/10 09:03:16;;;;;;;14.93;3.45;;;6.50;1.00;;;;;;5053317;28;20040;-75
2023/01/10 09:05:42;;;;;;;8.73;3.60;;;6.60;1.00;;;;;;5052336;28;20139;-74
2023/01/10 09:08:08;;;;;;;11.98;2.92;;;6.60;1.00;;;;;;5053110;28;20040;-74
2023/01/10 09:10:35;;;;;;;12.80;3.47;;;6.60;1.00;;;;;;5053528;28;20036;-74
2023/01/10 09:13:03;;;;;;;7.68;2.65;;;6.60;1.00;;;;;;5053251;28;20032;-78
2023/01/10 09:15:32;;;;;;;13.05;3.13;;;6.60;1.00;;;;;;5041119;28;20033;-74
2023/01/10 09:18:01;;;;;;;9.25;2.88;;;6.60;1.00;;;;;;5052807;28;20049;-74
2023/01/10 09:20:29;;;;;;;12.27;3.72;;;6.60;1.00;;;;;;5053536;28;20048;-74
2023/01/10 09:22:55;;;;;;;5.78;2.22;;;6.60;1.00;;;;;;5035525;28;20036;-73
2023/01/10 09:25:22;;;;;;;9.38;2.45;;;6.70;1.00;;;;;;5051259;28;20497;-74
2023/01/10 09:27:58;;;;;;;12.95;2.35;;;6.70;1.00;;;;;;5059584;28;20037;-73
2023/01/10 09:30:25;;;;;;;12.00;1.88;;;6.70;1.00;;;;;;5052830;28;20047;-73
2023/01/10 09:32:52;;;;;;;12.27;2.63;;;6.60;1.00;;;;;;5052905;28;20029;-73
2023/01/10 09:35:18;;;;;;;7.43;2.22;;;6.70;1.00;;;;;;5050975;28;20041;-73
2023/01/10 09:37:44;;;;;;;12.50;3.10;;;6.70;1.00;;;;;;5053293;28;20056;-73
2023/01/10 09:40:16;;;;;;;11.32;2.42;;;6.70;1.00;;;;;;5052407;28;20033;-74
2023/01/10 09:43:09;;;;;;;10.75;2.58;;;6.70;1.00;;;;;;5035105;28;20041;-73
2023/01/10 09:45:48;;;;;;;11.25;2.17;;;6.70;1.00;;;;;;5058320;28;20033;-75
2023/01/10 09:48:37;;;;;;;9.88;1.73;;;6.70;1.00;;;;;;5034704;28;20041;-75
2023/01/10 09:51:30;;;;;;;8.55;2.35;;;6.70;1.00;;;;;;5034318;28;20044;-76
2023/01/10 09:54:00;;;;;;;11.52;2.35;;;6.70;1.00;;;;;;5033881;28;20048;-76
2023/01/10 09:56:28;;;;;;;10.85;3.00;;;6.70;1.00;;;;;;5053321;28;20029;-75
2023/01/10 09:58:55;;;;;;;9.65;2.47;;;6.70;1.00;;;;;;5039098;28;20425;-75
2023/01/10 10:01:27;;;;;;;12.10;3.15;;;6.70;1.00;;;;;;5066268;28;20032;-75
2023/01/10 10:03:59;;;;;;;10.93;3.17;;;6.70;1.00;;;;;;5070704;28;20077;-76
2023/01/10 10:06:26;;;;;;;8.20;2.33;;;6.60;1.00;;;;;;5062201;28;20029;-76
2023/01/10 10:08:52;;;;;;;14.07;2.65;;;6.70;1.00;;;;;;5052107;28;20044;-76
2023/01/10 10:11:24;;;;;;;5.53;1.90;;;6.80;1.00;;;;;;5055526;28;20366;-75
2023/01/10 10:14:09;;;;;;;9.45;2.60;;;6.80;1.00;;;;;;5051416;28;20390;-76
2023/01/10 10:16:50;;;;;;;8.90;2.10;;;6.80;1.00;;;;;;5035018;28;20052;-76
2023/01/10 10:19:35;;;;;;;;;;;6.90;1.00;;;;;;5074722;28;20036;-77
2023/01/10 10:22:24;;;;;;;19.58;2.97;;;6.90;1.00;;;;;;5092817;28;19915;-76
2023/01/10 10:25:16;;;;;;;13.45;3.00;;;6.90;1.00;;;;;;5050355;28;20058;-77
2023/01/10 10:28:04;;;;;;;10.73;2.15;;;6.90;1.00;;;;;;5073137;28;20032;-76
2023/01/10 10:30:50;;;;;;;14.77;2.65;;;6.90;1.00;;;;;;5086406;28;20386;-76
2023/01/10 10:33:39;;;;;;;5.70;1.70;;;6.90;1.00;;;;;;5084361;28;20385;-76
2023/01/10 10:36:19;;;;;;;10.38;3.88;;;6.90;1.00;;;;;;5090216;28;20047;-76
2023/01/10 10:38:47;;;;;;;11.15;3.20;;;6.90;1.00;;;;;;5091393;28;20477;-77
2023/01/10 10:41:41;;;;;;;12.90;2.85;;;6.90;1.00;;;;;;5073230;28;20029;-76
2023/01/10 10:44:26;;;;;;;7.55;1.80;;;6.90;1.00;;;;;;5071603;28;20040;-75
2023/01/10 10:46:55;;;;;;;11.68;2.15;;;7.00;1.00;;;;;;5070828;28;20033;-75
2023/01/10 10:49:33;;;;;;;10.40;2.47;;;7.00;1.00;;;;;;5074129;28;20040;-75
2023/01/10 10:52:03;;;;;;;9.85;2.28;;;7.10;1.00;;;;;;5069716;28;20051;-75
2023/01/10 10:54:32;;;;;;;10.20;2.33;;;7.30;1.00;;;;;;5076027;28;20048;-75
2023/01/10 10:56:58;;;;;;;9.50;2.53;;;7.30;1.00;;;;;;5084039;28;20402;-75
2023/01/10 10:59:24;;;;;;;13.43;2.60;;;7.40;1.00;;;;;;5076334;28;20024;-76
2023/01/10 11:01:51;;;;;;;8.35;2.55;;;7.40;1.00;;;;;;5073421;28;20047;-75
2023/01/10 11:04:22;;;;;;;13.65;3.10;;;7.40;1.00;;;;;;5073031;28;20028;-75
2023/01/10 11:06:49;;;;;;;8.15;2.33;;;7.40;1.00;;;;;;5072497;28;20040;-75
2023/01/10 11:09:21;;;;;;;11.07;2.78;;;7.40;1.00;;;;;;5070621;28;20029;-75
2023/01/10 11:11:53;;;;;;;10.05;2.67;;;7.30;1.00;;;;;;5070212;28;20032;-76
2023/01/10 11:14:48;;;;;;;5.97;1.90;;;7.30;1.00;;;;;;5072327;28;20052;-75
2023/01/10 11:17:27;;;;;;;11.43;2.53;;;7.40;1.00;;;;;;5061033;28;20051;-76
2023/01/10 11:20:25;;;;;;;11.20;2.50;;;7.50;1.00;;;;;;5056122;28;20033;-75
2023/01/10 11:22:53;;;;;;;8.63;2.22;;;7.50;1.00;;;;;;5001664;28;20048;-76
2023/01/10 11:25:21;;;;;;;22.83;4.15;;;7.50;99.90;;;;;;5041205;28;20047;-76
2023/01/10 11:28:00;;;;;;;13.32;2.55;;;7.60;99.90;;;;;;5048545;28;20037;-76
2023/01/10 11:30:29;;;;;;;9.07;3.28;;;7.70;99.90;;;;;;5039911;28;20037;-75
2023/01/10 11:32:57;;;;;;;10.38;2.92;;;7.80;99.90;;;;;;5062583;28;20338;-76
2023/01/10 11:35:30;;;;;;;8.60;2.40;;;8.00;99.90;;;;;;5074304;28;20048;-76
2023/01/10 11:38:15;;;;;;;9.98;2.25;;;8.40;99.90;;;;;;5062945;28;20025;-76
2023/01/10 11:40:53;;;;;;;11.52;2.45;;;8.50;99.90;;;;;;5055301;28;20036;-75
2023/01/10 11:43:24;;;;;;;20.17;2.88;;;8.50;99.90;;;;;;5056405;28;20032;-75
2023/01/10 11:45:56;;;;;;;10.70;2.47;;;8.40;99.90;;;;;;5050685;28;20044;-76
2023/01/10 11:48:25;;;;;;;10.02;3.15;;;8.30;99.90;;;;;;5054459;28;20021;-76
2023/01/10 11:50:54;;;;;;;11.52;2.50;;;8.30;99.90;;;;;;5074624;28;20035;-75
2023/01/10 11:53:40;;;;;;;13.05;2.40;;;8.40;99.90;;;;;;5066770;28;20051;-75
2023/01/10 11:56:10;;;;;;;14.45;2.80;;;8.40;99.90;;;;;;5041930;28;20048;-78
2023/01/10 11:58:37;;;;;;;11.75;2.85;;;8.30;99.90;;;;;;5034959;28;20044;-76
2023/01/10 12:01:03;;;;;;;12.93;2.72;;;8.10;99.90;;;;;;5026740;28;20493;-75
2023/01/10 12:03:35;;;;;;;13.98;2.42;;;8.00;99.90;;;;;;5068915;28;20040;-76
2023/01/10 12:06:20;;;;;;;11.18;2.75;;;7.80;99.90;;;;;;5036732;28;20044;-75
2023/01/10 12:08:48;;;;;;;9.23;2.28;;;7.80;99.90;;;;;;5054680;28;20501;-75
2023/01/10 12:11:30;;;;;;;10.95;2.38;;;7.70;99.90;;;;;;5053932;28;20033;-78
2023/01/10 12:13:59;;;;;;;10.00;3.05;;;7.80;99.90;;;;;;5056343;28;20036;-76
2023/01/10 12:16:33;;;;;;;8.00;2.42;;;7.70;99.90;;;;;;5061685;28;20070;-76
2023/01/10 12:19:03;;;;;;;14.85;2.47;;;7.70;99.90;;;;;;5074637;28;20028;-77
2023/01/10 12:21:44;;;;;;;8.88;1.92;;;7.70;99.90;;;;;;5053869;28;20055;-76
2023/01/10 12:24:27;;;;;;;10.07;2.33;;;7.80;99.90;;;;;;5072988;28;20037;-76
2023/01/10 12:26:54;;;;;;;9.13;2.22;;;7.70;99.90;;;;;;5048064;28;20032;-77
2023/01/10 12:29:24;;;;;;;8.55;2.78;;;7.70;99.90;;;;;;5037760;28;20131;-77
2023/01/10 12:31:52;;;;;;;10.90;3.65;;;7.70;99.90;;;;;;5031302;28;20415;-77
2023/01/10 12:34:25;;;;;;;10.13;2.55;;;8.00;99.90;;;;;;5054343;28;20051;-77
2023/01/10 12:37:07;;;;;;;16.20;2.80;;;8.20;99.90;;;;;;5053887;28;20386;-76
2023/01/10 12:39:40;;;;;;;12.43;2.60;;;8.10;99.90;;;;;;5073617;28;20037;-76
2023/01/10 12:45:13;;;;;;;9.52;2.15;;;7.90;99.90;;;;;;5055949;28;20048;-76
2023/01/10 12:47:51;;;;;;;13.48;2.63;;;8.00;99.90;;;;;;5073202;28;20044;-75
2023/01/10 12:50:24;;;;;;;12.07;3.05;;;8.10;99.90;;;;;;5070864;28;20032;-76
2023/01/10 12:53:04;;;;;;;12.15;2.10;;;8.10;99.90;;;;;;5052504;28;20040;-75
2023/01/10 12:55:40;;;;;;;8.07;2.67;;;8.10;99.90;;;;;;5049555;28;20053;-76
2023/01/10 12:58:20;;;;;;;15.90;3.22;;;8.00;99.90;;;;;;5048587;28;20044;-75
2023/01/10 13:00:52;;;;;;;10.27;2.53;;;8.00;99.90;;;;;;5053047;28;20029;-75
2023/01/10 13:03:22;;;;;;;15.02;3.92;;;8.10;99.90;;;;;;5033795;28;20048;-76
2023/01/10 13:05:50;;;;;;;12.80;2.67;;;8.00;99.90;;;;;;5057806;28;20047;-76
2023/01/10 13:08:21;;;;;;;15.50;3.63;;;8.00;99.90;;;;;;5053729;28;20037;-77
2023/01/10 13:10:49;;;;;;;;;;;7.80;99.90;;;;;;5057074;28;20036;-77
2023/01/10 13:13:34;;;;;;;15.45;3.78;;;7.90;99.90;;;;;;5042603;28;19908;-77
2023/01/10 13:16:21;;;;;;;17.60;3.55;;;7.90;99.90;;;;;;5045026;28;20036;-77
2023/01/10 13:19:02;;;;;;;9.93;3.10;;;8.00;99.90;;;;;;5051089;28;20470;-76
2023/01/10 13:21:31;;;;;;;13.82;5.18;;;7.90;99.90;;;;;;5070228;28;20032;-78
2023/01/10 13:24:03;;;;;;;13.10;5.80;;;7.80;99.90;;;;;;5072265;28;20385;-76
2023/01/10 13:26:57;;;;;;;24.65;10.70;;;7.80;99.90;;;;;;5066786;28;20246;-77
2023/01/10 13:29:28;;;;;;;16.50;6.60;;;7.80;99.90;;;;;;5067101;28;20024;-77
2023/01/10 13:32:00;;;;;;;13.50;3.72;;;7.90;99.90;;;;;;5070468;28;20044;-77
2023/01/10 13:34:34;;;;;;;11.98;2.92;;;8.00;99.90;;;;;;5062589;28;20047;-75